sensor_id;sensor_type;location;lat;lon;timestamp;pressure;altitude;pressure_sealevel;temperature;humidity
18533;BME280;9396;51.510;11.934;2023-06-22T00:02:01;100754.75;;;22.62;99.71
18533;BME280;9396;51.510;11.934;2023-06-22T00:04:28;100751.72;;;22.70;99.80
18533;BME280;9396;51.510;11.934;2023-06-22T00:06:54;100749.56;;;22.79;100.00
18533;BME280;9396;51.510;11.934;2023-06-22T00:09:21;100749.50;;;22.85;100.00
18533;BME280;9396;51.510;11.934;2023-06-22T00:11:48;100743.25;;;22.85;100.00
18533;BME280;9396;51.510;11.934;2023-06-22T00:14:14;100741.75;;;22.89;100.00
18533;BME280;9396;51.510;11.934;2023-06-22T00:16:41;100743.63;;;22.88;100.00
18533;BME280;9396;51.510;11.934;2023-06-22T00:19:09;100740.06;;;22.88;99.97
18533;BME280;9396;51.510;11.934;2023-06-22T00:21:37;100737.97;;;22.90;99.95
18533;BME280;9396;51.510;11.934;2023-06-22T00:24:04;100735.69;;;22.87;99.98
18533;BME280;9396;51.510;11.934;2023-06-22T00:26:32;100745.56;;;22.81;100.00
18533;BME280;9396;51.510;11.934;2023-06-22T00:28:59;100732.50;;;22.72;100.00
18533;BME280;9396;51.510;11.934;2023-06-22T00:31:25;100746.22;;;22.77;100.00
18533;BME280;9396;51.510;11.934;2023-06-22T00:33:52;100740.38;;;22.80;100.00
18533;BME280;9396;51.510;11.934;2023-06-22T00:36:20;100741.41;;;22.79;100.00
18533;BME280;9396;51.510;11.934;2023-06-22T00:38:46;100743.31;;;22.78;100.00
18533;BME280;9396;51.510;11.934;2023-06-22T00:41:16;100741.63;;;22.77;100.00
18533;BME280;9396;51.510;11.934;2023-06-22T00:43:42;100739.16;;;22.76;100.00
18533;BME280;9396;51.510;11.934;2023-06-22T00:46:09;100734.81;;;22.75;100.00
18533;BME280;9396;51.510;11.934;2023-06-22T00:48:36;100736.69;;;22.74;100.00
18533;BME280;9396;51.510;11.934;2023-06-22T00:51:03;100736.53;;;22.69;100.00
18533;BME280;9396;51.510;11.934;2023-06-22T00:53:31;100733.81;;;22.69;100.00
18533;BME280;9396;51.510;11.934;2023-06-22T00:56:00;100733.81;;;22.69;100.00
18533;BME280;9396;51.510;11.934;2023-06-22T00:58:28;100738.84;;;22.66;100.00
18533;BME280;9396;51.510;11.934;2023-06-22T01:00:56;100737.19;;;22.65;100.00
18533;BME280;9396;51.510;11.934;2023-06-22T01:03:23;100741.59;;;22.59;100.00
18533;BME280;9396;51.510;11.934;2023-06-22T01:05:50;100741.84;;;22.58;100.00
18533;BME280;9396;51.510;11.934;2023-06-22T01:08:26;100740.41;;;22.55;100.00
18533;BME280;9396;51.510;11.934;2023-06-22T01:11:00;100741.44;;;22.54;100.00
18533;BME280;9396;51.510;11.934;2023-06-22T01:13:35;100759.78;;;22.52;100.00
18533;BME280;9396;51.510;11.934;2023-06-22T01:16:08;100771.09;;;22.49;100.00
18533;BME280;9396;51.510;11.934;2023-06-22T01:18:40;100764.84;;;22.49;100.00
18533;BME280;9396;51.510;11.934;2023-06-22T01:21:12;100770.88;;;22.51;100.00
18533;BME280;9396;51.510;11.934;2023-06-22T01:23:50;100764.03;;;22.48;100.00
18533;BME280;9396;51.510;11.934;2023-06-22T01:26:22;100742.44;;;22.35;100.00
18533;BME280;9396;51.510;11.934;2023-06-22T01:28:55;100760.03;;;22.51;100.00
18533;BME280;9396;51.510;11.934;2023-06-22T01:31:25;100760.94;;;22.45;100.00
18533;BME280;9396;51.510;11.934;2023-06-22T01:33:55;100760.66;;;22.28;100.00
18533;BME280;9396;51.510;11.934;2023-06-22T01:36:24;100762.03;;;22.37;100.00
18533;BME280;9396;51.510;11.934;2023-06-22T01:38:52;100746.16;;;22.41;100.00
18533;BME280;9396;51.510;11.934;2023-06-22T01:41:19;100749.84;;;22.46;100.00
18533;BME280;9396;51.510;11.934;2023-06-22T01:43:47;100748.34;;;22.50;100.00
18533;BME280;9396;51.510;11.934;2023-06-22T01:46:15;100751.88;;;22.51;100.00
18533;BME280;9396;51.510;11.934;2023-06-22T01:48:44;100741.88;;;22.51;100.00
18533;BME280;9396;51.510;11.934;2023-06-22T01:51:11;100738.94;;;22.53;100.00
18533;BME280;9396;51.510;11.934;2023-06-22T01:53:38;100739.78;;;22.53;100.00
18533;BME280;9396;51.510;11.934;2023-06-22T01:56:05;100718.72;;;22.55;100.00
18533;BME280;9396;51.510;11.934;2023-06-22T01:58:32;100725.16;;;22.54;100.00
18533;BME280;9396;51.510;11.934;2023-06-22T02:01:04;100724.16;;;22.55;100.00
18533;BME280;9396;51.510;11.934;2023-06-22T02:03:38;100720.78;;;22.53;100.00
18533;BME280;9396;51.510;11.934;2023-06-22T02:06:10;100700.31;;;22.32;100.00
18533;BME280;9396;51.510;11.934;2023-06-22T02:08:42;100736.31;;;22.46;100.00
18533;BME280;9396;51.510;11.934;2023-06-22T02:11:15;100724.84;;;22.44;100.00
18533;BME280;9396;51.510;11.934;2023-06-22T02:13:43;100728.59;;;22.43;100.00
18533;BME280;9396;51.510;11.934;2023-06-22T02:16:10;100721.53;;;22.42;100.00
18533;BME280;9396;51.510;11.934;2023-06-22T02:18:39;100721.25;;;22.25;100.00
18533;BME280;9396;51.510;11.934;2023-06-22T02:21:11;100721.63;;;22.29;100.00
18533;BME280;9396;51.510;11.934;2023-06-22T02:23:38;100715.78;;;22.32;100.00
18533;BME280;9396;51.510;11.934;2023-06-22T02:26:05;100709.75;;;22.30;100.00
18533;BME280;9396;51.510;11.934;2023-06-22T02:28:31;100710.78;;;22.29;100.00
18533;BME280;9396;51.510;11.934;2023-06-22T02:30:58;100712.06;;;22.26;100.00
18533;BME280;9396;51.510;11.934;2023-06-22T02:33:25;100713.56;;;22.22;100.00
18533;BME280;9396;51.510;11.934;2023-06-22T02:35:54;100710.47;;;22.19;100.00
18533;BME280;9396;51.510;11.934;2023-06-22T02:38:20;100717.38;;;22.15;100.00
18533;BME280;9396;51.510;11.934;2023-06-22T02:40:49;100712.63;;;22.10;100.00
18533;BME280;9396;51.510;11.934;2023-06-22T02:43:16;100708.47;;;22.08;100.00
18533;BME280;9396;51.510;11.934;2023-06-22T02:45:43;100707.25;;;22.04;100.00
18533;BME280;9396;51.510;11.934;2023-06-22T02:48:10;100701.25;;;22.02;100.00
18533;BME280;9396;51.510;11.934;2023-06-22T02:50:36;100707.47;;;22.02;100.00
18533;BME280;9396;51.510;11.934;2023-06-22T02:53:04;100702.13;;;21.96;100.00
18533;BME280;9396;51.510;11.934;2023-06-22T02:55:31;100710.88;;;21.91;100.00
18533;BME280;9396;51.510;11.934;2023-06-22T02:57:57;100714.28;;;21.87;100.00
18533;BME280;9396;51.510;11.934;2023-06-22T03:00:25;100701.41;;;21.82;100.00
18533;BME280;9396;51.510;11.934;2023-06-22T03:02:55;100705.13;;;21.81;100.00
18533;BME280;9396;51.510;11.934;2023-06-22T03:05:22;100712.84;;;21.78;100.00
18533;BME280;9396;51.510;11.934;2023-06-22T03:07:49;100721.19;;;21.76;100.00
18533;BME280;9396;51.510;11.934;2023-06-22T03:10:17;100726.22;;;21.73;100.00
18533;BME280;9396;51.510;11.934;2023-06-22T03:12:44;100690.47;;;21.58;100.00
18533;BME280;9396;51.510;11.934;2023-06-22T03:15:12;100711.00;;;21.72;100.00
18533;BME280;9396;51.510;11.934;2023-06-22T03:17:40;100719.13;;;21.72;100.00
18533;BME280;9396;51.510;11.934;2023-06-22T03:20:08;100732.66;;;21.72;100.00
18533;BME280;9396;51.510;11.934;2023-06-22T03:22:36;100729.38;;;21.63;100.00
18533;BME280;9396;51.510;11.934;2023-06-22T03:25:03;100735.81;;;21.69;100.00
18533;BME280;9396;51.510;11.934;2023-06-22T03:27:36;100738.28;;;21.70;100.00
18533;BME280;9396;51.510;11.934;2023-06-22T03:30:03;100744.09;;;21.74;100.00
18533;BME280;9396;51.510;11.934;2023-06-22T03:32:30;100749.91;;;21.77;100.00
18533;BME280;9396;51.510;11.934;2023-06-22T03:34:57;100757.03;;;21.78;100.00
18533;BME280;9396;51.510;11.934;2023-06-22T03:37:24;100761.41;;;21.79;100.00
18533;BME280;9396;51.510;11.934;2023-06-22T03:39:51;100765.78;;;21.80;100.00
18533;BME280;9396;51.510;11.934;2023-06-22T03:42:17;100768.69;;;21.79;100.00
18533;BME280;9396;51.510;11.934;2023-06-22T03:44:45;100769.94;;;21.76;100.00
18533;BME280;9396;51.510;11.934;2023-06-22T03:47:12;100781.63;;;21.77;100.00
18533;BME280;9396;51.510;11.934;2023-06-22T03:49:39;100791.19;;;21.79;100.00
18533;BME280;9396;51.510;11.934;2023-06-22T03:52:06;100780.38;;;21.79;100.00
18533;BME280;9396;51.510;11.934;2023-06-22T03:54:33;100788.91;;;21.76;100.00
18533;BME280;9396;51.510;11.934;2023-06-22T03:56:59;100794.56;;;21.68;100.00
18533;BME280;9396;51.510;11.934;2023-06-22T03:59:26;100798.28;;;21.74;100.00
18533;BME280;9396;51.510;11.934;2023-06-22T04:01:54;100801.38;;;21.77;100.00
18533;BME280;9396;51.510;11.934;2023-06-22T04:04:21;100807.84;;;21.83;100.00
18533;BME280;9396;51.510;11.934;2023-06-22T04:06:47;100813.44;;;21.88;100.00
18533;BME280;9396;51.510;11.934;2023-06-22T04:09:14;100821.09;;;21.97;100.00
18533;BME280;9396;51.510;11.934;2023-06-22T04:11:40;100821.94;;;21.98;100.00
18533;BME280;9396;51.510;11.934;2023-06-22T04:14:07;100826.69;;;22.02;100.00
18533;BME280;9396;51.510;11.934;2023-06-22T04:16:34;100827.97;;;22.00;100.00
18533;BME280;9396;51.510;11.934;2023-06-22T04:19:02;100816.69;;;22.03;100.00
18533;BME280;9396;51.510;11.934;2023-06-22T04:21:28;100820.19;;;22.10;100.00
18533;BME280;9396;51.510;11.934;2023-06-22T04:23:55;100823.91;;;22.15;100.00
18533;BME280;9396;51.510;11.934;2023-06-22T04:26:21;100820.53;;;22.20;100.00
18533;BME280;9396;51.510;11.934;2023-06-22T04:28:48;100818.03;;;22.25;100.00
18533;BME280;9396;51.510;11.934;2023-06-22T04:31:17;100815.09;;;22.26;100.00
18533;BME280;9396;51.510;11.934;2023-06-22T04:33:44;100816.50;;;22.29;100.00
18533;BME280;9396;51.510;11.934;2023-06-22T04:36:12;100815.22;;;22.07;99.71
18533;BME280;9396;51.510;11.934;2023-06-22T04:38:38;100811.41;;;22.14;100.00
18533;BME280;9396;51.510;11.934;2023-06-22T04:41:05;100807.22;;;22.18;99.80
18533;BME280;9396;51.510;11.934;2023-06-22T04:43:33;100807.88;;;22.14;100.00
18533;BME280;9396;51.510;11.934;2023-06-22T04:46:00;100804.72;;;22.17;100.00
18533;BME280;9396;51.510;11.934;2023-06-22T04:48:28;100807.66;;;22.15;99.71
18533;BME280;9396;51.510;11.934;2023-06-22T04:50:58;100808.75;;;22.08;99.14
18533;BME280;9396;51.510;11.934;2023-06-22T04:53:31;100804.50;;;22.18;99.60
18533;BME280;9396;51.510;11.934;2023-06-22T04:55:58;100789.91;;;22.19;99.07
18533;BME280;9396;51.510;11.934;2023-06-22T04:58:24;100789.19;;;22.30;98.75
18533;BME280;9396;51.510;11.934;2023-06-22T05:00:54;100780.06;;;22.25;97.61
18533;BME280;9396;51.510;11.934;2023-06-22T05:03:22;100775.47;;;22.25;97.51
18533;BME280;9396;51.510;11.934;2023-06-22T05:05:51;100773.91;;;22.11;97.54
18533;BME280;9396;51.510;11.934;2023-06-22T05:08:18;100761.03;;;22.07;97.51
18533;BME280;9396;51.510;11.934;2023-06-22T05:10:46;100748.47;;;22.12;97.84
18533;BME280;9396;51.510;11.934;2023-06-22T05:13:12;100745.53;;;21.89;98.01
18533;BME280;9396;51.510;11.934;2023-06-22T05:15:39;100728.88;;;21.86;97.74
18533;BME280;9396;51.510;11.934;2023-06-22T05:18:05;100717.84;;;21.74;98.42
18533;BME280;9396;51.510;11.934;2023-06-22T05:20:32;100716.81;;;21.75;98.94
18533;BME280;9396;51.510;11.934;2023-06-22T05:23:01;100717.44;;;21.84;99.19
18533;BME280;9396;51.510;11.934;2023-06-22T05:25:27;100722.03;;;21.70;99.73
18533;BME280;9396;51.510;11.934;2023-06-22T05:27:56;100722.31;;;21.62;99.67
18533;BME280;9396;51.510;11.934;2023-06-22T05:30:23;100715.59;;;21.71;100.00
18533;BME280;9396;51.510;11.934;2023-06-22T05:32:49;100712.53;;;21.61;100.00
18533;BME280;9396;51.510;11.934;2023-06-22T05:35:18;100707.94;;;21.62;100.00
18533;BME280;9396;51.510;11.934;2023-06-22T05:37:44;100711.25;;;21.64;100.00
18533;BME280;9396;51.510;11.934;2023-06-22T05:40:12;100706.25;;;21.67;100.00
18533;BME280;9396;51.510;11.934;2023-06-22T05:42:38;100705.13;;;21.81;100.00
18533;BME280;9396;51.510;11.934;2023-06-22T05:45:07;100701.22;;;21.71;100.00
18533;BME280;9396;51.510;11.934;2023-06-22T05:47:34;100705.59;;;21.78;100.00
18533;BME280;9396;51.510;11.934;2023-06-22T05:50:00;100705.34;;;21.80;100.00
18533;BME280;9396;51.510;11.934;2023-06-22T05:52:31;100705.59;;;22.03;100.00
18533;BME280;9396;51.510;11.934;2023-06-22T05:54:58;100698.34;;;21.97;100.00
18533;BME280;9396;51.510;11.934;2023-06-22T05:57:24;100700.50;;;22.13;100.00
18533;BME280;9396;51.510;11.934;2023-06-22T05:59:51;100708.00;;;22.17;100.00
18533;BME280;9396;51.510;11.934;2023-06-22T06:02:20;100707.34;;;22.40;100.00
18533;BME280;9396;51.510;11.934;2023-06-22T06:04:47;100710.59;;;22.55;98.34
18533;BME280;9396;51.510;11.934;2023-06-22T06:07:13;100707.81;;;22.80;98.33
18533;BME280;9396;51.510;11.934;2023-06-22T06:09:40;100721.53;;;23.03;96.42
18533;BME280;9396;51.510;11.934;2023-06-22T06:12:07;100717.47;;;23.12;96.06
18533;BME280;9396;51.510;11.934;2023-06-22T06:14:34;100723.03;;;22.99;95.19
18533;BME280;9396;51.510;11.934;2023-06-22T06:17:01;100726.94;;;23.21;95.80
18533;BME280;9396;51.510;11.934;2023-06-22T06:19:28;100728.00;;;23.38;94.90
18533;BME280;9396;51.510;11.934;2023-06-22T06:21:55;100729.00;;;23.55;94.59
18533;BME280;9396;51.510;11.934;2023-06-22T06:24:22;100732.09;;;23.59;93.81
18533;BME280;9396;51.510;11.934;2023-06-22T06:26:48;100734.81;;;23.59;93.46
18533;BME280;9396;51.510;11.934;2023-06-22T06:29:15;100747.03;;;23.68;93.73
18533;BME280;9396;51.510;11.934;2023-06-22T06:31:42;100740.81;;;23.79;93.92
18533;BME280;9396;51.510;11.934;2023-06-22T06:34:09;100736.72;;;23.58;92.19
18533;BME280;9396;51.510;11.934;2023-06-22T06:36:37;100745.13;;;23.39;92.60
18533;BME280;9396;51.510;11.934;2023-06-22T06:39:03;100737.97;;;23.44;93.36
18533;BME280;9396;51.510;11.934;2023-06-22T06:41:30;100743.75;;;23.48;92.16
18533;BME280;9396;51.510;11.934;2023-06-22T06:43:57;100738.78;;;23.45;92.84
18533;BME280;9396;51.510;11.934;2023-06-22T06:46:23;100741.66;;;23.50;94.85
18533;BME280;9396;51.510;11.934;2023-06-22T06:48:50;100739.75;;;23.50;94.97
18533;BME280;9396;51.510;11.934;2023-06-22T06:51:17;100731.53;;;23.57;94.98
18533;BME280;9396;51.510;11.934;2023-06-22T06:53:45;100730.69;;;23.56;93.94
18533;BME280;9396;51.510;11.934;2023-06-22T06:56:11;100731.56;;;23.68;94.16
18533;BME280;9396;51.510;11.934;2023-06-22T06:58:40;100742.00;;;23.83;94.94
18533;BME280;9396;51.510;11.934;2023-06-22T07:01:07;100744.97;;;23.93;95.44
18533;BME280;9396;51.510;11.934;2023-06-22T07:03:34;100731.47;;;24.04;94.90
18533;BME280;9396;51.510;11.934;2023-06-22T07:06:00;100739.97;;;24.08;92.09
18533;BME280;9396;51.510;11.934;2023-06-22T07:08:27;100741.50;;;24.04;91.60
18533;BME280;9396;51.510;11.934;2023-06-22T07:10:55;100740.31;;;24.00;91.79
18533;BME280;9396;51.510;11.934;2023-06-22T07:13:22;100736.91;;;24.16;92.87
18533;BME280;9396;51.510;11.934;2023-06-22T07:15:48;100738.22;;;24.25;91.57
18533;BME280;9396;51.510;11.934;2023-06-22T07:18:15;100731.69;;;24.14;89.10
18533;BME280;9396;51.510;11.934;2023-06-22T07:20:42;100724.03;;;24.23;89.74
18533;BME280;9396;51.510;11.934;2023-06-22T07:23:08;100724.63;;;24.25;88.37
18533;BME280;9396;51.510;11.934;2023-06-22T07:25:35;100733.06;;;24.35;89.32
18533;BME280;9396;51.510;11.934;2023-06-22T07:28:04;100723.78;;;24.48;89.43
18533;BME280;9396;51.510;11.934;2023-06-22T07:30:32;100717.19;;;24.67;87.28
18533;BME280;9396;51.510;11.934;2023-06-22T07:33:00;100710.84;;;25.12;85.74
18533;BME280;9396;51.510;11.934;2023-06-22T07:35:29;100713.94;;;25.56;83.80
18533;BME280;9396;51.510;11.934;2023-06-22T07:37:56;100717.13;;;25.81;84.01
18533;BME280;9396;51.510;11.934;2023-06-22T07:40:22;100725.53;;;26.07;84.73
18533;BME280;9396;51.510;11.934;2023-06-22T07:42:49;100720.06;;;26.24;82.85
18533;BME280;9396;51.510;11.934;2023-06-22T07:45:18;100722.91;;;26.01;81.61
18533;BME280;9396;51.510;11.934;2023-06-22T07:47:45;100723.38;;;26.26;83.62
18533;BME280;9396;51.510;11.934;2023-06-22T07:50:11;100714.94;;;26.44;81.58
18533;BME280;9396;51.510;11.934;2023-06-22T07:52:38;100713.91;;;26.67;82.53
18533;BME280;9396;51.510;11.934;2023-06-22T07:55:05;100713.41;;;27.08;79.38
18533;BME280;9396;51.510;11.934;2023-06-22T07:57:31;100714.63;;;27.17;79.12
18533;BME280;9396;51.510;11.934;2023-06-22T08:00:03;100708.44;;;27.70;78.45
18533;BME280;9396;51.510;11.934;2023-06-22T08:02:38;100717.41;;;27.22;77.77
18533;BME280;9396;51.510;11.934;2023-06-22T08:05:05;100713.28;;;27.19;78.78
18533;BME280;9396;51.510;11.934;2023-06-22T08:07:33;100707.72;;;27.58;78.63
18533;BME280;9396;51.510;11.934;2023-06-22T08:10:00;100709.91;;;27.56;77.97
18533;BME280;9396;51.510;11.934;2023-06-22T08:12:27;100709.16;;;27.17;77.68
18533;BME280;9396;51.510;11.934;2023-06-22T08:14:54;100700.06;;;27.55;78.09
18533;BME280;9396;51.510;11.934;2023-06-22T08:17:22;100688.44;;;28.27;77.64
18533;BME280;9396;51.510;11.934;2023-06-22T08:19:50;100692.13;;;28.90;75.04
18533;BME280;9396;51.510;11.934;2023-06-22T08:22:16;100681.09;;;29.36;73.45
18533;BME280;9396;51.510;11.934;2023-06-22T08:24:44;100684.41;;;29.53;72.71
18533;BME280;9396;51.510;11.934;2023-06-22T08:27:10;100684.41;;;29.48;72.51
18533;BME280;9396;51.510;11.934;2023-06-22T08:29:38;100677.25;;;29.37;71.74
18533;BME280;9396;51.510;11.934;2023-06-22T08:32:08;100687.13;;;28.77;72.01
18533;BME280;9396;51.510;11.934;2023-06-22T08:34:35;100680.41;;;28.99;72.80
18533;BME280;9396;51.510;11.934;2023-06-22T08:37:03;100688.69;;;28.63;73.37
18533;BME280;9396;51.510;11.934;2023-06-22T08:39:31;100692.94;;;28.85;73.43
18533;BME280;9396;51.510;11.934;2023-06-22T08:41:58;100688.50;;;28.74;73.29
18533;BME280;9396;51.510;11.934;2023-06-22T08:44:25;100690.69;;;28.77;72.22
18533;BME280;9396;51.510;11.934;2023-06-22T08:46:52;100683.56;;;28.71;72.68
18533;BME280;9396;51.510;11.934;2023-06-22T08:49:18;100682.16;;;28.69;73.85
18533;BME280;9396;51.510;11.934;2023-06-22T08:51:45;100689.63;;;28.83;72.05
18533;BME280;9396;51.510;11.934;2023-06-22T08:54:15;100688.94;;;28.19;73.64
18533;BME280;9396;51.510;11.934;2023-06-22T08:56:42;100690.94;;;28.34;74.58
18533;BME280;9396;51.510;11.934;2023-06-22T08:59:09;100680.44;;;28.21;74.53
18533;BME280;9396;51.510;11.934;2023-06-22T09:01:36;100676.16;;;28.35;73.30
18533;BME280;9396;51.510;11.934;2023-06-22T09:04:02;100685.13;;;28.62;73.75
18533;BME280;9396;51.510;11.934;2023-06-22T09:06:31;100680.84;;;28.81;72.88
18533;BME280;9396;51.510;11.934;2023-06-22T09:08:58;100675.69;;;28.95;72.48
18533;BME280;9396;51.510;11.934;2023-06-22T09:11:27;100671.31;;;28.94;71.51
18533;BME280;9396;51.510;11.934;2023-06-22T09:13:53;100671.31;;;28.89;72.16
18533;BME280;9396;51.510;11.934;2023-06-22T09:16:20;100669.09;;;28.86;71.96
18533;BME280;9396;51.510;11.934;2023-06-22T09:18:47;100664.03;;;29.19;72.82
18533;BME280;9396;51.510;11.934;2023-06-22T09:21:14;100650.66;;;29.33;69.87
18533;BME280;9396;51.510;11.934;2023-06-22T09:23:41;100650.47;;;29.70;72.07
18533;BME280;9396;51.510;11.934;2023-06-22T09:26:08;100651.03;;;29.92;68.36
18533;BME280;9396;51.510;11.934;2023-06-22T09:28:36;100650.38;;;29.44;68.34
18533;BME280;9396;51.510;11.934;2023-06-22T09:31:02;100635.88;;;29.44;69.08
18533;BME280;9396;51.510;11.934;2023-06-22T09:33:29;100642.50;;;29.73;71.79
18533;BME280;9396;51.510;11.934;2023-06-22T09:35:56;100634.56;;;29.72;68.07
18533;BME280;9396;51.510;11.934;2023-06-22T09:38:22;100634.56;;;29.72;68.20
18533;BME280;9396;51.510;11.934;2023-06-22T09:40:49;100622.44;;;29.63;68.09
18533;BME280;9396;51.510;11.934;2023-06-22T09:43:16;100624.69;;;29.76;70.44
18533;BME280;9396;51.510;11.934;2023-06-22T09:45:44;100627.44;;;29.71;68.83
18533;BME280;9396;51.510;11.934;2023-06-22T09:48:11;100632.31;;;29.53;69.17
18533;BME280;9396;51.510;11.934;2023-06-22T09:50:37;100617.47;;;29.34;69.17
18533;BME280;9396;51.510;11.934;2023-06-22T09:53:04;100621.28;;;29.13;69.11
18533;BME280;9396;51.510;11.934;2023-06-22T09:55:31;100620.44;;;29.13;69.59
18533;BME280;9396;51.510;11.934;2023-06-22T09:57:57;100612.78;;;29.20;70.32
18533;BME280;9396;51.510;11.934;2023-06-22T10:00:24;100608.31;;;29.04;69.35
18533;BME280;9396;51.510;11.934;2023-06-22T10:02:53;100602.66;;;29.15;68.91
18533;BME280;9396;51.510;11.934;2023-06-22T10:05:21;100607.84;;;29.12;67.97
18533;BME280;9396;51.510;11.934;2023-06-22T10:07:47;100603.72;;;29.19;68.35
18533;BME280;9396;51.510;11.934;2023-06-22T10:10:14;100596.09;;;29.26;68.72
18533;BME280;9396;51.510;11.934;2023-06-22T10:12:42;100568.13;;;29.24;69.61
18533;BME280;9396;51.510;11.934;2023-06-22T10:15:10;100599.66;;;29.57;69.47
18533;BME280;9396;51.510;11.934;2023-06-22T10:17:36;100585.97;;;29.52;68.04
18533;BME280;9396;51.510;11.934;2023-06-22T10:20:06;100591.72;;;29.45;67.68
18533;BME280;9396;51.510;11.934;2023-06-22T10:22:37;100593.63;;;29.50;68.55
18533;BME280;9396;51.510;11.934;2023-06-22T10:25:04;100587.03;;;29.41;67.21
18533;BME280;9396;51.510;11.934;2023-06-22T10:27:31;100593.34;;;29.51;66.97
18533;BME280;9396;51.510;11.934;2023-06-22T10:29:57;100573.91;;;29.58;66.97
18533;BME280;9396;51.510;11.934;2023-06-22T10:32:24;100573.13;;;29.78;66.89
18533;BME280;9396;51.510;11.934;2023-06-22T10:34:51;100556.06;;;29.61;66.47
18533;BME280;9396;51.510;11.934;2023-06-22T10:37:19;100570.34;;;29.83;67.38
18533;BME280;9396;51.510;11.934;2023-06-22T10:39:45;100581.03;;;29.89;66.27
18533;BME280;9396;51.510;11.934;2023-06-22T10:42:12;100569.78;;;29.61;65.86
18533;BME280;9396;51.510;11.934;2023-06-22T10:44:39;100565.13;;;29.46;66.96
18533;BME280;9396;51.510;11.934;2023-06-22T10:47:06;100565.13;;;29.46;67.30
18533;BME280;9396;51.510;11.934;2023-06-22T10:49:33;100565.94;;;29.36;66.96
18533;BME280;9396;51.510;11.934;2023-06-22T10:52:00;100571.16;;;29.28;66.50
18533;BME280;9396;51.510;11.934;2023-06-22T10:54:28;100557.16;;;29.29;67.19
18533;BME280;9396;51.510;11.934;2023-06-22T10:56:55;100558.28;;;29.38;67.46
18533;BME280;9396;51.510;11.934;2023-06-22T10:59:21;100551.94;;;29.48;67.80
18533;BME280;9396;51.510;11.934;2023-06-22T11:01:50;100544.56;;;29.48;65.23
18533;BME280;9396;51.510;11.934;2023-06-22T11:04:16;100541.78;;;29.59;64.73
18533;BME280;9396;51.510;11.934;2023-06-22T11:06:43;100536.84;;;29.61;64.07
18533;BME280;9396;51.510;11.934;2023-06-22T11:09:10;100538.50;;;29.67;64.01
18533;BME280;9396;51.510;11.934;2023-06-22T11:11:38;100532.22;;;29.61;63.73
18533;BME280;9396;51.510;11.934;2023-06-22T11:14:04;100532.50;;;29.70;65.18
18533;BME280;9396;51.510;11.934;2023-06-22T11:16:31;100532.78;;;29.73;64.59
18533;BME280;9396;51.510;11.934;2023-06-22T11:18:57;100529.19;;;29.58;62.91
18533;BME280;9396;51.510;11.934;2023-06-22T11:21:24;100522.88;;;29.67;63.20
18533;BME280;9396;51.510;11.934;2023-06-22T11:23:51;100534.16;;;29.76;62.99
18533;BME280;9396;51.510;11.934;2023-06-22T11:26:17;100525.09;;;29.70;61.80
18533;BME280;9396;51.510;11.934;2023-06-22T11:28:45;100524.78;;;29.51;62.01
18533;BME280;9396;51.510;11.934;2023-06-22T11:31:12;100514.94;;;29.40;62.75
18533;BME280;9396;51.510;11.934;2023-06-22T11:33:39;100523.72;;;29.47;62.84
18533;BME280;9396;51.510;11.934;2023-06-22T11:36:06;100518.78;;;29.55;62.61
18533;BME280;9396;51.510;11.934;2023-06-22T11:38:32;100511.63;;;29.59;63.87
18533;BME280;9396;51.510;11.934;2023-06-22T11:41:00;100518.75;;;29.65;62.25
18533;BME280;9396;51.510;11.934;2023-06-22T11:43:26;100510.56;;;29.70;63.92
18533;BME280;9396;51.510;11.934;2023-06-22T11:45:55;100514.66;;;29.82;62.56
18533;BME280;9396;51.510;11.934;2023-06-22T11:48:23;100514.38;;;29.89;64.65
18533;BME280;9396;51.510;11.934;2023-06-22T11:50:50;100510.78;;;29.93;65.01
18533;BME280;9396;51.510;11.934;2023-06-22T11:53:17;100491.59;;;29.78;64.18
18533;BME280;9396;51.510;11.934;2023-06-22T11:55:43;100506.97;;;29.84;64.45
18533;BME280;9396;51.510;11.934;2023-06-22T11:58:10;100496.81;;;29.65;63.81
18533;BME280;9396;51.510;11.934;2023-06-22T12:00:37;100494.09;;;29.70;63.87
18533;BME280;9396;51.510;11.934;2023-06-22T12:03:05;100482.59;;;29.73;64.05
18533;BME280;9396;51.510;11.934;2023-06-22T12:05:31;100481.47;;;29.79;65.68
18533;BME280;9396;51.510;11.934;2023-06-22T12:07:58;100481.44;;;29.89;63.80
18533;BME280;9396;51.510;11.934;2023-06-22T12:10:25;100485.31;;;29.83;64.87
18533;BME280;9396;51.510;11.934;2023-06-22T12:12:53;100474.88;;;29.85;64.58
18533;BME280;9396;51.510;11.934;2023-06-22T12:15:20;100470.22;;;29.85;64.10
18533;BME280;9396;51.510;11.934;2023-06-22T12:17:47;100460.03;;;29.96;64.54
18533;BME280;9396;51.510;11.934;2023-06-22T12:20:15;100456.16;;;29.97;65.76
18533;BME280;9396;51.510;11.934;2023-06-22T12:22:42;100449.59;;;29.93;64.05
18533;BME280;9396;51.510;11.934;2023-06-22T12:25:10;100441.34;;;29.98;64.01
18533;BME280;9396;51.510;11.934;2023-06-22T12:27:37;100441.06;;;29.99;64.03
18533;BME280;9396;51.510;11.934;2023-06-22T12:30:04;100441.88;;;30.05;64.09
18533;BME280;9396;51.510;11.934;2023-06-22T12:32:31;100423.47;;;30.05;64.85
18533;BME280;9396;51.510;11.934;2023-06-22T12:34:58;100444.03;;;30.13;63.42
18533;BME280;9396;51.510;11.934;2023-06-22T12:37:26;100430.31;;;30.13;63.94
18533;BME280;9396;51.510;11.934;2023-06-22T12:39:54;100430.28;;;30.18;64.54
18533;BME280;9396;51.510;11.934;2023-06-22T12:42:20;100424.47;;;30.24;64.41
18533;BME280;9396;51.510;11.934;2023-06-22T12:44:47;100416.25;;;30.19;62.67
18533;BME280;9396;51.510;11.934;2023-06-22T12:47:14;100405.25;;;30.24;62.84